Flight Track Log - Related Links

Times and Time Zones

All times are in EDT time to prevent confusion due to time zone crossing. See the N16112 flight status page for this flight to view local times or setup timezone preferences in your user account.

Time Position Orientation Groundspeed Altitude Reporting Facility
EDT Latitude Longitude Course Direction KTS MPH feet Rate Location/Type
Wed 06:56:50 PM 39.3833 -94.6667 30° Northeast 227 261 3,200  Level Kansas City TRACON
Wed 06:57:57 PM 39.3944 -94.5769 81° East 259 298 4,900 1,688 Climbing Kansas City Center
Wed 06:58:00 PM 38.9795 -94.6490 169° South  Level FlightAware Approximate
Wed 06:58:58 PM 39.3886 -94.4828 95° East 278 320 6,800  Level Kansas City Center
Wed 06:59:00 PM 38.8689 -94.6238 171° South  Level FlightAware Approximate
Wed 07:00:00 PM 38.7579 -94.6016 171° South  Level FlightAware Approximate
Wed 07:00:01 PM 39.3147 -94.4683 171° South 246 283 9,400  Level Kansas City Center
Wed 07:01:03 PM 39.2450 -94.4706 181° South 260 299 10,500 1,230 Climbing Kansas City Center
Wed 07:02:03 PM 39.1611 -94.4714 180° South 311 358 11,900 1,694 Climbing Kansas City Center
Wed 07:03:07 PM 39.0661 -94.4736 181° South 305 351 14,000 1,632 Climbing Kansas City Center
Wed 07:04:08 PM 38.9822 -94.4750 181° South 312 359 15,300 1,289 Climbing Kansas City Center
Wed 07:05:08 PM 38.8803 -94.4769 181° South 327 376 16,600 1,161 Climbing Kansas City Center
Wed 07:06:12 PM 38.7925 -94.4778 180° South 329 379 17,700 1,296 Climbing Kansas City Center
Wed 07:07:13 PM 38.7014 -94.4811 182° South 338 389 19,300 1,623 Climbing Kansas City Center
Wed 07:08:14 PM 38.5978 -94.4842 181° South 333 383 21,000 1,636 Climbing Kansas City Center
Wed 07:09:14 PM 38.5097 -94.4844 180° South 330 380 22,600 1,548 Climbing Kansas City Center
Wed 07:10:18 PM 38.4064 -94.4881 182° South 331 381 24,200 1,440 Climbing Kansas City Center
Wed 07:11:19 PM 38.3186 -94.4800 176° South 331 381 25,600 1,328 Climbing Kansas City Center
Wed 07:12:20 PM 38.2572 -94.3686 125° Southeast 357 411 26,900 1,240 Climbing Kansas City Center
Wed 07:13:20 PM 38.2425 -94.2397 98° East 374 430 28,100 1,131 Climbing Kansas City Center
Wed 07:14:22 PM 38.2275 -94.1131 99° East 379 436 29,200 1,056 Climbing Kansas City Center
Wed 07:15:25 PM 38.2214 -93.9675 93° East 380 437 30,300 1,008 Climbing Kansas City Center
Wed 07:16:27 PM 38.2181 -93.8292 92° East 391 450 31,300 1,033 Climbing Kansas City Center
Wed 07:17:27 PM 38.2147 -93.6906 92° East 392 451 32,400 1,180 Climbing Kansas City Center
Wed 07:18:29 PM 38.2114 -93.5542 92° East 388 447 33,700 1,220 Climbing Kansas City Center
Wed 07:19:30 PM 38.2081 -93.4236 92° East 376 433 34,900 629 Climbing Kansas City Center
Wed 07:20:33 PM 38.2053 -93.2928 92° East 370 426 35,000 49 Climbing Kansas City Center
Wed 07:21:33 PM 38.2006 -93.1261 92° East 387 445 35,000  Level Kansas City Center
Wed 07:22:37 PM 38.1986 -92.9778 91° East 413 475 35,000 624 Level Kansas City Center
Wed 07:23:38 PM 38.1933 -92.8317 93° East 413 475 36,300 984 Climbing Kansas City Center
Wed 07:24:39 PM 38.1892 -92.7061 92° East 398 458 37,000 347 Climbing Kansas City Center
Wed 07:25:39 PM 38.1856 -92.5681 92° East 392 451 37,000  Level Kansas City Center
Wed 07:26:40 PM 38.1806 -92.4239 92° East 405 466 37,000  Level Kansas City Center
Wed 07:27:44 PM 38.1747 -92.2456 92° East 420 483 37,000  Level Kansas City Center
Wed 07:28:45 PM 38.1683 -92.0936 93° East 429 494 37,000  Level Kansas City Center
Wed 07:29:47 PM 38.1622 -91.9447 93° East 434 499 37,000  Level Kansas City Center
Wed 07:30:47 PM 38.1558 -91.7872 93° East 440 506 37,000  Level Kansas City Center
Wed 07:31:50 PM 38.1489 -91.6294 93° East 444 511 37,000  Level Kansas City Center
Wed 07:32:51 PM 38.1425 -91.4744 93° East 443 510 37,000  Level Kansas City Center
Wed 07:33:51 PM 38.1372 -91.3161 92° East 444 511 37,000  Level Kansas City Center
Wed 07:34:52 PM 38.1278 -91.1247 94° East 448 516 37,000  Level Kansas City Center
Wed 07:35:56 PM 38.1194 -90.9656 94° East 456 525 37,000  Level Kansas City Center
Wed 07:36:57 PM 38.1114 -90.8047 94° East 460 529 37,000  Level Kansas City Center
Wed 07:37:58 PM 38.1042 -90.6456 93° East 456 525 37,000  Level Kansas City Center
Wed 07:38:59 PM 38.0967 -90.4842 93° East 461 531 37,000  Level Kansas City Center
Wed 07:40:02 PM 38.0872 -90.2978 94° East 465 535 37,000  Level Kansas City Center
Wed 07:41:04 PM 38.0783 -90.1200 94° East 469 540 37,000  Level Kansas City Center
Wed 07:42:04 PM 38.0681 -89.9542 94° East 472 543 37,000  Level Kansas City Center
Wed 07:43:07 PM 38.0594 -89.7894 94° East 472 543 37,000  Level Kansas City Center
Wed 07:44:08 PM 38.0500 -89.6139 94° East 467 537 37,000  Level Kansas City Center
Wed 07:45:08 PM 38.0436 -89.4508 93° East 465 535 37,000  Level Kansas City Center
Wed 07:46:12 PM 38.0653 -89.2872 80° East 469 540 37,000  Level Kansas City Center
Wed 07:47:12 PM 38.0881 -89.1133 80° East 468 539 37,000  Level Kansas City Center
Wed 07:48:13 PM 38.1100 -88.9489 80° East 472 543 37,000  Level Kansas City Center
Wed 07:49:14 PM 38.1331 -88.7844 80° East 474 545 37,000  Level Kansas City Center
Wed 07:50:18 PM 38.1556 -88.6247 80° East 473 544 37,000  Level Kansas City Center
Wed 07:51:20 PM 38.1783 -88.4614 80° East 470 541 37,000  Level Kansas City Center
Wed 07:52:21 PM 38.2000 -88.2964 80° East 471 542 37,000  Level Kansas City Center
Wed 07:53:22 PM 38.2231 -88.1325 80° East 468 539 37,000  Level Kansas City Center
Wed 07:54:00 PM 38.2411 -88.0047 80° East 464 534 37,000  Level Indianapolis Center
Wed 07:55:01 PM 38.2606 -87.8572 80° East 432 497 37,000  Level Indianapolis Center
Wed 07:56:03 PM 38.2811 -87.7069 80° East 428 493 37,000  Level Indianapolis Center
Wed 07:57:04 PM 38.3006 -87.5533 81° East 437 503 37,000  Level Indianapolis Center
Wed 07:58:06 PM 38.3197 -87.4019 81° East 433 498 37,000  Level Indianapolis Center
Wed 07:59:08 PM 38.3378 -87.2589 81° East 413 475 37,000  Level Indianapolis Center
Wed 08:00:09 PM 38.3583 -87.1022 80° East 408 470 37,000  Level Indianapolis Center
Wed 08:01:11 PM 38.4294 -86.9736 55° Northeast 431 496 37,000  Level Indianapolis Center
Wed 08:02:12 PM 38.5028 -86.8539 52° Northeast 435 501 37,000  Level Indianapolis Center
Wed 08:03:14 PM 38.5789 -86.7308 52° Northeast 439 505 37,000  Level Indianapolis Center
Wed 08:04:15 PM 38.6539 -86.6103 51° Northeast 434 499 37,000  Level Indianapolis Center
Wed 08:05:16 PM 38.7278 -86.4922 51° Northeast 427 491 37,000  Level Indianapolis Center
Wed 08:06:18 PM 38.8008 -86.3733 52° Northeast 424 488 37,000  Level Indianapolis Center
Wed 08:07:19 PM 38.8756 -86.2503 52° Northeast 433 498 37,000  Level Indianapolis Center
Wed 08:08:21 PM 38.9672 -86.1017 52° Northeast 439 505 37,000  Level Indianapolis Center
Wed 08:09:22 PM 39.0411 -85.9794 52° Northeast 434 499 37,000  Level Indianapolis Center
Wed 08:10:24 PM 39.1125 -85.8600 52° Northeast 423 487 37,000  Level Indianapolis Center
Wed 08:11:25 PM 39.1864 -85.7389 52° Northeast 428 493 37,000  Level Indianapolis Center
Wed 08:12:27 PM 39.2611 -85.6150 52° Northeast 434 499 37,000  Level Indianapolis Center
Wed 08:13:28 PM 39.3436 -85.4808 51° Northeast 444 511 37,000  Level Indianapolis Center
Wed 08:14:30 PM 39.4250 -85.3567 50° Northeast 449 517 37,000  Level Indianapolis Center
Wed 08:15:31 PM 39.5078 -85.2342 49° Northeast 447 514 37,000  Level Indianapolis Center
Wed 08:16:32 PM 39.5861 -85.1169 49° Northeast 432 497 37,000  Level Indianapolis Center
Wed 08:17:34 PM 39.6644 -84.9969 50° Northeast 429 494 37,000  Level Indianapolis Center
Wed 08:18:35 PM 39.7464 -84.8761 49° Northeast 439 505 37,000  Level Indianapolis Center
Wed 08:19:36 PM 39.8261 -84.7528 50° Northeast 441 507 37,000  Level Indianapolis Center
Wed 08:20:38 PM 39.9094 -84.6267 49° Northeast 452 520 37,000  Level Indianapolis Center
Wed 08:21:39 PM 39.9925 -84.4994 50° Northeast 455 524 37,000  Level Indianapolis Center
Wed 08:22:41 PM 40.0761 -84.3708 50° Northeast 459 528 37,000  Level Indianapolis Center
Wed 08:23:42 PM 40.1600 -84.2411 50° Northeast 459 528 37,000  Level Indianapolis Center
Wed 08:24:43 PM 40.2442 -84.1111 50° Northeast 461 531 37,000  Level Indianapolis Center
Wed 08:25:45 PM 40.3250 -83.9792 51° Northeast 460 529 37,000  Level Indianapolis Center
Wed 08:26:46 PM 40.4153 -83.8242 53° Northeast 454 522 37,000  Level Indianapolis Center
Wed 08:27:47 PM 40.4931 -83.6911 52° Northeast 453 521 37,000  Level Indianapolis Center
Wed 08:28:49 PM 40.5706 -83.5567 53° Northeast 455 524 37,000  Level Indianapolis Center
Wed 08:29:39 PM 40.6336 -83.4450 53° Northeast 449 517 37,000  Level Cleveland Center
Wed 08:30:39 PM 40.6931 -83.3161 59° Northeast 449 517 37,000  Level Cleveland Center
Wed 08:31:38 PM 40.7569 -83.1653 61° Northeast 455 524 37,000  Level Cleveland Center
Wed 08:32:38 PM 40.8189 -83.0142 62° Northeast 460 529 37,000  Level Cleveland Center
Wed 08:33:38 PM 40.8803 -82.8681 61° Northeast 460 529 37,000  Level Cleveland Center
Wed 08:34:39 PM 40.9436 -82.7164 61° Northeast 466 536 37,000  Level Cleveland Center
Wed 08:35:39 PM 41.0069 -82.5614 62° Northeast 466 536 37,000  Level Cleveland Center
Wed 08:36:39 PM 41.0719 -82.4064 61° Northeast 471 542 37,000  Level Cleveland Center
Wed 08:37:39 PM 41.1347 -82.2539 61° Northeast 471 542 37,000  Level Cleveland Center
Wed 08:38:39 PM 41.1972 -82.1008 61° Northeast 466 536 37,000  Level Cleveland Center
Wed 08:39:39 PM 41.2619 -81.9450 61° Northeast 471 542 37,000  Level Cleveland Center
Wed 08:40:39 PM 41.3261 -81.7886 61° Northeast 471 542 37,000  Level Cleveland Center
Wed 08:41:39 PM 41.3881 -81.6319 62° Northeast 471 542 37,000  Level Cleveland Center
Wed 08:42:39 PM 41.4500 -81.4808 61° Northeast 463 533 37,000  Level Cleveland Center
Wed 08:43:39 PM 41.5114 -81.3236 62° Northeast 468 539 37,000  Level Cleveland Center
Wed 08:44:39 PM 41.5750 -81.1661 62° Northeast 474 545 37,000  Level Cleveland Center
Wed 08:45:39 PM 41.6339 -81.0139 63° Northeast 466 536 37,000  Level Cleveland Center
Wed 08:46:39 PM 41.6969 -80.8528 62° Northeast 472 543 37,000  Level Cleveland Center
Wed 08:47:39 PM 41.7639 -80.6806 62° Northeast 467 537 37,000  Level Cleveland Center
Wed 08:48:39 PM 41.7953 -80.5081 76° East 467 537 37,000  Level Cleveland Center
Wed 08:49:39 PM 41.7761 -80.3214 98° East 473 544 37,000  Level Cleveland Center
Wed 08:50:39 PM 41.7569 -80.1433 98° East 482 555 37,000  Level Cleveland Center
Wed 08:51:39 PM 41.7372 -79.9597 98° East 487 560 37,000  Level Cleveland Center
Wed 08:52:39 PM 41.7194 -79.7792 97° East 492 566 37,000  Level Cleveland Center
Wed 08:53:39 PM 41.7017 -79.6181 98° East 492 566 37,000  Level Cleveland Center
Wed 08:54:39 PM 41.6833 -79.4322 97° East 492 566 37,000  Level Cleveland Center
Wed 08:55:39 PM 41.6625 -79.2544 99° East 497 572 37,000  Level Cleveland Center
Wed 08:56:39 PM 41.6436 -79.0689 98° East 497 572 37,000 -350 Level Cleveland Center
Wed 08:57:39 PM 41.6222 -78.8833 99° East 502 578 36,300 -1,382 Descending Cleveland Center
Wed 08:59:24 PM 41.5858 -78.5761 99° East 466 536 33,200 -1,704 Descending New York Center
Wed 09:00:21 PM 41.5636 -78.4014 100° East 472 543 31,700 -1,109 Descending New York Center
Wed 09:01:23 PM 41.5439 -78.2217 98° East 472 543 31,000 -344 Descending New York Center
Wed 09:02:23 PM 41.5217 -78.0419 99° East 484 557 31,000 -496 Level New York Center
Wed 09:03:24 PM 41.4975 -77.8536 100° East 499 574 30,000 -992 Descending New York Center
Wed 09:04:24 PM 41.4711 -77.6681 101° East 512 589 29,000 -504 Descending New York Center
Wed 09:05:23 PM 41.4408 -77.4683 101° East 517 595 29,000  Level New York Center
Wed 09:06:21 PM 41.4136 -77.2858 101° East 517 595 29,000  Level New York Center
Wed 09:07:23 PM 41.3858 -77.1061 102° East 517 595 29,000  Level New York Center
Wed 09:08:24 PM 41.3597 -76.9267 101° East 517 595 29,000 -814 Level New York Center
Wed 09:09:21 PM 41.3275 -76.7442 103° East 517 595 27,400 -1,866 Descending New York Center
Wed 09:10:23 PM 41.2819 -76.5689 109° East 501 577 25,300 -2,361 Descending New York Center
Wed 09:11:23 PM 41.2394 -76.4133 110° East 501 577 22,600 -2,826 Descending New York Center
Wed 09:12:24 PM 41.1950 -76.2525 110° East 483 556 19,600 -2,672 Descending New York Center
Wed 09:13:22 PM 41.1506 -76.0836 109° East 449 517 17,300 -2,067 Descending New York Center
Wed 09:14:23 PM 41.1133 -75.9347 108° East 438 504 15,500 -1,686 Descending New York Center
Wed 09:15:23 PM 41.0769 -75.8108 111° Southeast 415 478 13,900 -1,240 Descending New York Center
Wed 09:16:24 PM 41.0392 -75.6706 110° East 405 466 13,000 -446 Descending New York Center
Wed 09:17:24 PM 40.9953 -75.5189 111° Southeast 396 456 13,000 -300 Level New York Center
Wed 09:18:24 PM 40.9572 -75.3789 110° East 396 456 12,400 -1,250 Descending New York Center
Wed 09:19:24 PM 40.9203 -75.2528 111° Southeast 390 449 10,500 -1,538 Descending New York Center
Wed 09:20:21 PM 40.8892 -75.1408 110° East 347 399 9,400 -1,412 Descending New York Center
Wed 09:21:23 PM 40.8633 -75.0486 110° East 307 353 7,700 -1,171 Descending New York Center
Wed 09:22:24 PM 40.8269 -74.9558 117° Southeast 288 331 7,000 -454 Descending New York Center
Wed 09:23:22 PM 40.7844 -74.8628 121° Southeast 290 334 6,800 -504 Descending New York Center
Wed 09:24:23 PM 40.7589 -74.7544 107° East 284 327 6,000 -393 Descending New York Center
Wed 09:25:24 PM 40.7389 -74.6683 107° East 272 313 6,000  Level New York Center
Wed 09:26:24 PM 40.7025 -74.5733 117° Southeast 272 313 6,000 -308 Level New York Center
Wed 09:27:21 PM 40.6414 -74.5314 152° Southeast 259 298 5,400 -791 Descending New York Center
Wed 09:27:55 PM 40.6000 -74.4833 139° Southeast 270 311 4,800 -857 Descending New York TRACON
Wed 09:29:55 PM 40.5500 -74.3167 111° Southeast 213 245 3,200 -867 Descending New York TRACON
Wed 09:30:55 PM 40.5667 -74.2500 72° East 180 207 2,200 -1,000 Descending New York TRACON

Login

Don't have an account? Register now (free) for customized features, flight alerts, and more!